createdAt,value
2023-02-09T00:00:12.668Z,-6.62
2023-02-09T00:03:04.615Z,-6.63
2023-02-09T00:05:37.952Z,-6.66
2023-02-09T00:08:06.474Z,-6.72
2023-02-09T00:10:39.851Z,-6.77
2023-02-09T00:13:24.062Z,-6.83
2023-02-09T00:15:54.632Z,-6.90
2023-02-09T00:18:25.074Z,-6.95
2023-02-09T00:20:58.113Z,-6.99
2023-02-09T00:23:28.070Z,-7.03
2023-02-09T00:25:59.658Z,-7.05
2023-02-09T00:28:29.421Z,-7.04
2023-02-09T00:30:58.901Z,-7.01
2023-02-09T00:33:28.304Z,-7.02
2023-02-09T00:35:56.946Z,-7.09
2023-02-09T00:38:27.996Z,-7.11
2023-02-09T00:40:57.745Z,-7.09
2023-02-09T00:43:26.741Z,-7.13
2023-02-09T00:45:55.396Z,-7.11
2023-02-09T00:48:24.364Z,-7.07
2023-02-09T00:50:54.030Z,-7.07
2023-02-09T00:53:23.568Z,-7.12
2023-02-09T00:55:52.647Z,-7.22
2023-02-09T00:58:21.283Z,-7.27
2023-02-09T01:00:52.063Z,-7.28
2023-02-09T01:03:20.768Z,-7.29
2023-02-09T01:05:50.239Z,-7.30
2023-02-09T01:08:18.986Z,-7.30
2023-02-09T01:10:48.232Z,-7.28
2023-02-09T01:13:17.009Z,-7.25
2023-02-09T01:15:46.172Z,-7.23
2023-02-09T01:18:17.841Z,-7.21
2023-02-09T01:20:46.883Z,-7.21
2023-02-09T01:23:15.720Z,-7.21
2023-02-09T01:25:45.093Z,-7.22
2023-02-09T01:28:14.350Z,-7.21
2023-02-09T01:30:45.576Z,-7.17
2023-02-09T01:33:16.473Z,-7.15
2023-02-09T01:35:45.113Z,-7.13
2023-02-09T01:38:13.748Z,-7.09
2023-02-09T01:40:48.580Z,-7.05
2023-02-09T01:43:17.910Z,-7.01
2023-02-09T01:45:50.195Z,-6.94
2023-02-09T01:48:23.540Z,-6.88
2023-02-09T01:51:00.316Z,-6.83
2023-02-09T01:53:29.592Z,-6.77
2023-02-09T01:56:06.410Z,-6.76
2023-02-09T01:58:37.340Z,-6.75
2023-02-09T02:01:07.185Z,-6.73
2023-02-09T02:03:35.988Z,-6.67
2023-02-09T02:06:08.997Z,-6.73
2023-02-09T02:08:41.635Z,-6.83
2023-02-09T02:11:11.033Z,-6.75
2023-02-09T02:13:40.865Z,-6.68
2023-02-09T02:16:25.172Z,-6.65
2023-02-09T02:19:12.705Z,-6.61
2023-02-09T02:22:05.351Z,-6.57
2023-02-09T02:25:04.089Z,-6.57
2023-02-09T02:27:45.083Z,-6.61
2023-02-09T02:30:41.462Z,-6.61
2023-02-09T02:33:36.708Z,-6.66
2023-02-09T02:36:12.275Z,-6.64
2023-02-09T02:38:53.271Z,-6.60
2023-02-09T02:41:51.499Z,-6.59
2023-02-09T02:44:20.597Z,-6.60
2023-02-09T02:46:54.502Z,-6.63
2023-02-09T02:49:29.222Z,-6.60
2023-02-09T02:52:03.139Z,-6.59
2023-02-09T02:54:38.581Z,-6.57
2023-02-09T02:57:11.751Z,-6.51
2023-02-09T02:59:45.474Z,-6.45
2023-02-09T03:02:20.286Z,-6.40
2023-02-09T03:04:54.720Z,-6.41
2023-02-09T03:07:24.439Z,-6.44
2023-02-09T03:09:55.592Z,-6.49
2023-02-09T03:12:34.409Z,-6.53
2023-02-09T03:15:14.253Z,-6.58
2023-02-09T03:17:51.003Z,-6.63
2023-02-09T03:20:29.467Z,-6.66
2023-02-09T03:23:02.230Z,-6.68
2023-02-09T03:25:35.641Z,-6.68
2023-02-09T03:28:08.635Z,-6.71
2023-02-09T03:30:41.938Z,-6.71
2023-02-09T03:33:20.756Z,-6.71
2023-02-09T03:35:52.435Z,-6.70
2023-02-09T03:38:21.508Z,-6.70
2023-02-09T03:40:50.274Z,-6.70
2023-02-09T03:43:19.482Z,-6.69
2023-02-09T03:45:48.667Z,-6.70
2023-02-09T03:48:17.450Z,-6.71
2023-02-09T03:50:46.634Z,-6.65
2023-02-09T03:53:15.895Z,-6.57
2023-02-09T03:55:46.829Z,-6.54
2023-02-09T03:58:17.388Z,-6.49
2023-02-09T04:00:46.697Z,-6.45
2023-02-09T04:03:15.695Z,-6.48
2023-02-09T04:05:44.358Z,-6.47
2023-02-09T04:08:13.029Z,-6.37
2023-02-09T04:10:42.009Z,-6.26
2023-02-09T04:13:10.934Z,-6.16
2023-02-09T04:15:40.752Z,-6.10
2023-02-09T04:18:09.839Z,-6.04
2023-02-09T04:20:38.736Z,-6.00
2023-02-09T04:23:07.353Z,-6.00
2023-02-09T04:25:36.414Z,-6.01
2023-02-09T04:28:05.880Z,-6.02
2023-02-09T04:30:35.308Z,-6.05
2023-02-09T04:33:04.184Z,-6.05
2023-02-09T04:35:35.300Z,-6.01
2023-02-09T04:38:04.106Z,-6.01
2023-02-09T04:40:34.246Z,-6.02
2023-02-09T04:43:03.259Z,-6.00
2023-02-09T04:45:32.019Z,-5.99
2023-02-09T04:48:02.016Z,-5.97
2023-02-09T04:50:31.199Z,-5.91
2023-02-09T04:53:00.362Z,-5.89
2023-02-09T04:55:31.033Z,-5.88
2023-02-09T04:58:18.010Z,-5.86
2023-02-09T05:00:48.145Z,-5.85
2023-02-09T05:03:17.367Z,-5.88
2023-02-09T05:05:48.676Z,-5.95
2023-02-09T05:08:17.451Z,-6.01
2023-02-09T05:10:50.096Z,-6.06
2023-02-09T05:13:19.700Z,-6.12
2023-02-09T05:15:49.108Z,-6.15
2023-02-09T05:18:18.027Z,-6.14
2023-02-09T05:20:48.700Z,-6.11
2023-02-09T05:23:18.494Z,-6.16
2023-02-09T05:25:47.924Z,-6.22
2023-02-09T05:28:17.465Z,-6.27
2023-02-09T05:30:48.375Z,-6.29
2023-02-09T05:33:17.423Z,-6.30
2023-02-09T05:35:46.146Z,-6.32
2023-02-09T05:38:16.966Z,-6.27
2023-02-09T05:40:45.701Z,-6.27
2023-02-09T05:43:14.843Z,-6.26
2023-02-09T05:45:44.669Z,-6.22
2023-02-09T05:48:13.570Z,-6.25
2023-02-09T05:50:42.451Z,-6.31
2023-02-09T05:53:11.327Z,-6.30
2023-02-09T05:55:43.532Z,-6.32
2023-02-09T05:58:12.134Z,-6.38
2023-02-09T06:00:40.937Z,-6.39
2023-02-09T06:03:09.507Z,-6.38
2023-02-09T06:05:38.165Z,-6.38
2023-02-09T06:08:07.260Z,-6.46
2023-02-09T06:10:37.103Z,-6.49
2023-02-09T06:13:06.662Z,-6.50
2023-02-09T06:15:36.700Z,-6.55
2023-02-09T06:18:06.251Z,-6.64
2023-02-09T06:20:38.362Z,-6.64
2023-02-09T06:23:08.177Z,-6.60
2023-02-09T06:25:39.356Z,-6.61
2023-02-09T06:28:08.063Z,-6.59
2023-02-09T06:30:36.808Z,-6.63
2023-02-09T06:33:06.916Z,-6.69
2023-02-09T06:35:36.967Z,-6.78
2023-02-09T06:38:09.432Z,-6.88
2023-02-09T06:40:39.635Z,-6.97
2023-02-09T06:43:08.306Z,-7.05
2023-02-09T06:45:41.105Z,-7.10
2023-02-09T06:48:10.446Z,-7.14
2023-02-09T06:50:39.492Z,-7.16
2023-02-09T06:53:10.719Z,-7.18
2023-02-09T06:55:39.598Z,-7.19
2023-02-09T06:58:08.478Z,-7.22
2023-02-09T07:00:37.403Z,-7.22
2023-02-09T07:03:06.343Z,-7.17
2023-02-09T07:05:36.041Z,-7.14
2023-02-09T07:08:05.529Z,-7.12
2023-02-09T07:10:36.535Z,-7.11
2023-02-09T07:13:05.450Z,-7.11
2023-02-09T07:15:34.505Z,-7.08
2023-02-09T07:18:03.667Z,-7.07
2023-02-09T07:20:35.114Z,-7.05
2023-02-09T07:23:08.357Z,-7.04
2023-02-09T07:25:37.178Z,-7.00
2023-02-09T07:28:06.143Z,-6.96
2023-02-09T07:30:40.621Z,-6.88
2023-02-09T07:33:10.048Z,-6.82
2023-02-09T07:35:40.582Z,-6.78
2023-02-09T07:38:09.340Z,-6.72
2023-02-09T07:40:38.629Z,-6.67
2023-02-09T07:43:07.370Z,-6.60
2023-02-09T07:45:38.485Z,-6.54
2023-02-09T07:48:07.441Z,-6.46
2023-02-09T07:50:36.398Z,-6.42
2023-02-09T07:53:09.450Z,-6.36
2023-02-09T07:55:40.352Z,-6.30
2023-02-09T07:58:10.352Z,-6.26
2023-02-09T08:00:41.162Z,-6.20
2023-02-09T08:03:10.101Z,-6.12
2023-02-09T08:05:45.791Z,-6.07
2023-02-09T08:08:14.890Z,-6.03
2023-02-09T08:10:44.149Z,-5.96
2023-02-09T08:13:14.651Z,-5.88
2023-02-09T08:15:47.401Z,-5.79
2023-02-09T08:18:21.088Z,-5.71
2023-02-09T08:20:51.847Z,-5.62
2023-02-09T08:23:25.240Z,-5.53
2023-02-09T08:25:55.553Z,-5.43
2023-02-09T08:28:38.216Z,-5.30
2023-02-09T08:31:12.815Z,-5.15
2023-02-09T08:33:42.387Z,-5.01
2023-02-09T08:36:11.969Z,-4.82
2023-02-09T08:38:40.986Z,-4.57
2023-02-09T08:41:12.305Z,-4.29
2023-02-09T08:43:42.570Z,-4.11
2023-02-09T08:46:13.163Z,-4.06
2023-02-09T08:48:44.069Z,-4.05
2023-02-09T08:51:14.586Z,-4.03
2023-02-09T08:53:45.732Z,-4.00
2023-02-09T08:56:15.518Z,-3.92
2023-02-09T08:58:45.033Z,-3.35
2023-02-09T09:01:13.708Z,-2.55
2023-02-09T09:03:43.165Z,-2.00
2023-02-09T09:06:12.959Z,-1.59
2023-02-09T09:08:42.265Z,-1.54
2023-02-09T09:11:14.279Z,-1.49
2023-02-09T09:13:43.437Z,-1.43
2023-02-09T09:16:16.415Z,-1.55
2023-02-09T09:18:46.318Z,-1.73
2023-02-09T09:21:17.474Z,-1.89
2023-02-09T09:23:47.262Z,-1.96
2023-02-09T09:26:16.957Z,-2.00
2023-02-09T09:28:48.940Z,-2.04
2023-02-09T09:31:18.972Z,-2.06
2023-02-09T09:33:48.958Z,-2.09
2023-02-09T09:36:18.797Z,-2.09
2023-02-09T09:38:47.454Z,-2.07
2023-02-09T09:41:23.943Z,-2.06
2023-02-09T09:43:53.632Z,-2.04
2023-02-09T09:46:40.111Z,-1.97
2023-02-09T09:49:22.746Z,-1.80
2023-02-09T09:51:56.476Z,-1.55
2023-02-09T09:54:29.335Z,-1.26
2023-02-09T09:56:58.442Z,-0.83
2023-02-09T09:59:32.267Z,-0.43
2023-02-09T10:02:17.663Z,-0.03
2023-02-09T10:04:49.913Z,0.58
2023-02-09T10:07:23.602Z,1.27
2023-02-09T10:09:55.999Z,1.94
2023-02-09T10:12:37.085Z,2.54
2023-02-09T10:15:27.994Z,3.12
2023-02-09T10:17:57.870Z,3.65
2023-02-09T10:20:45.649Z,4.18
2023-02-09T10:23:23.737Z,4.71
2023-02-09T10:25:58.691Z,5.12
2023-02-09T10:28:30.784Z,5.36
2023-02-09T10:31:02.482Z,5.52
2023-02-09T10:33:43.924Z,5.66
2023-02-09T10:36:28.423Z,5.87
2023-02-09T10:39:15.591Z,5.91
2023-02-09T10:41:47.972Z,5.80
2023-02-09T10:44:21.449Z,5.78
2023-02-09T10:46:50.690Z,5.74
2023-02-09T10:49:36.594Z,5.74
2023-02-09T10:52:18.885Z,5.74
2023-02-09T10:54:51.275Z,5.65
2023-02-09T10:57:27.984Z,5.38
2023-02-09T10:59:58.851Z,5.25
2023-02-09T11:02:34.878Z,5.14
2023-02-09T11:05:25.728Z,4.90
2023-02-09T11:07:59.229Z,4.64
2023-02-09T11:10:32.225Z,4.43
2023-02-09T11:13:12.620Z,4.30
2023-02-09T11:15:44.645Z,4.28
2023-02-09T11:18:19.765Z,4.15
2023-02-09T11:20:55.496Z,3.98
2023-02-09T11:23:39.382Z,3.82
2023-02-09T11:26:17.657Z,3.58
2023-02-09T11:28:57.585Z,3.36
2023-02-09T11:31:49.819Z,3.24
2023-02-09T11:34:42.368Z,3.19
2023-02-09T11:37:25.668Z,3.18
2023-02-09T11:40:02.130Z,3.09
2023-02-09T11:42:44.022Z,3.03
2023-02-09T11:45:17.572Z,2.93
2023-02-09T11:47:58.766Z,2.83
2023-02-09T11:50:34.970Z,2.76
2023-02-09T11:53:15.972Z,2.69
2023-02-09T11:55:48.394Z,2.59
2023-02-09T11:58:34.804Z,2.53
2023-02-09T12:01:15.989Z,2.44
2023-02-09T12:03:56.680Z,2.43
2023-02-09T12:06:28.003Z,2.42
2023-02-09T12:09:08.861Z,2.42
2023-02-09T12:11:45.343Z,2.41
2023-02-09T12:14:44.029Z,2.44
2023-02-09T12:17:17.841Z,2.46
2023-02-09T12:19:56.221Z,2.46
2023-02-09T12:22:50.678Z,2.48
2023-02-09T12:25:33.832Z,2.48
2023-02-09T12:28:13.959Z,2.47
2023-02-09T12:31:03.732Z,2.48
2023-02-09T12:33:35.601Z,2.56
2023-02-09T12:36:23.979Z,2.63
2023-02-09T12:39:06.033Z,2.67
2023-02-09T12:42:21.018Z,2.68
2023-02-09T12:44:58.251Z,2.74
2023-02-09T12:47:45.999Z,2.76
2023-02-09T12:50:28.537Z,2.80
2023-02-09T12:53:31.398Z,2.78
2023-02-09T12:56:03.704Z,2.75
2023-02-09T12:58:39.200Z,2.77
2023-02-09T13:01:10.271Z,2.81
2023-02-09T13:03:51.932Z,2.81
2023-02-09T13:06:33.487Z,2.76
2023-02-09T13:09:07.671Z,2.69
2023-02-09T13:11:45.888Z,2.63
2023-02-09T13:14:16.419Z,2.61
2023-02-09T13:17:16.999Z,2.58
2023-02-09T13:20:04.961Z,2.52
2023-02-09T13:22:53.472Z,2.48
2023-02-09T13:25:29.757Z,2.43
2023-02-09T13:28:10.475Z,2.39
2023-02-09T13:30:41.843Z,2.35
2023-02-09T13:33:25.845Z,2.31
2023-02-09T13:36:16.236Z,2.24
2023-02-09T13:38:52.228Z,2.20
2023-02-09T13:41:31.877Z,2.17
2023-02-09T13:44:00.771Z,2.15
2023-02-09T13:46:35.246Z,2.13
2023-02-09T13:49:17.767Z,2.10
2023-02-09T13:51:46.695Z,2.06
2023-02-09T13:54:19.999Z,1.99
2023-02-09T13:56:48.953Z,1.96
2023-02-09T13:59:17.786Z,1.92
2023-02-09T14:01:47.992Z,1.87
2023-02-09T14:04:20.516Z,1.83
2023-02-09T14:06:53.025Z,1.81
2023-02-09T14:09:26.225Z,1.80
2023-02-09T14:12:02.167Z,1.78
2023-02-09T14:14:50.248Z,1.75
2023-02-09T14:17:25.937Z,1.73
2023-02-09T14:19:57.210Z,1.69
2023-02-09T14:22:32.130Z,1.62
2023-02-09T14:25:17.637Z,1.55
2023-02-09T14:27:48.428Z,1.49
2023-02-09T14:30:20.879Z,1.44
2023-02-09T14:32:54.261Z,1.39
2023-02-09T14:35:26.300Z,1.33
2023-02-09T14:37:58.760Z,1.29
2023-02-09T14:40:34.158Z,1.23
2023-02-09T14:43:19.478Z,1.17
2023-02-09T14:46:01.026Z,1.13
2023-02-09T14:48:31.493Z,1.08
2023-02-09T14:51:02.668Z,1.04
2023-02-09T14:53:36.542Z,0.99
2023-02-09T14:56:13.788Z,0.94
2023-02-09T14:58:42.728Z,0.88
2023-02-09T15:01:11.777Z,0.82
2023-02-09T15:03:40.529Z,0.77
2023-02-09T15:06:12.942Z,0.71
2023-02-09T15:08:42.986Z,0.65
2023-02-09T15:11:42.212Z,0.60
2023-02-09T15:14:11.935Z,0.53
2023-02-09T15:16:41.333Z,0.48
2023-02-09T15:19:14.099Z,0.41
2023-02-09T15:21:43.364Z,0.35
2023-02-09T15:24:12.089Z,0.29
2023-02-09T15:26:41.913Z,0.24
2023-02-09T15:29:13.490Z,0.17
2023-02-09T15:31:42.871Z,0.11
2023-02-09T15:34:14.560Z,0.04
2023-02-09T15:36:43.831Z,-0.01
2023-02-09T15:39:19.950Z,-0.07
2023-02-09T15:42:10.383Z,-0.13
2023-02-09T15:44:57.834Z,-0.20
2023-02-09T15:47:45.082Z,-0.28
2023-02-09T15:50:14.137Z,-0.34
2023-02-09T15:52:42.932Z,-0.41
2023-02-09T15:55:18.453Z,-0.47
2023-02-09T15:57:49.541Z,-0.53
2023-02-09T16:00:21.820Z,-0.59
2023-02-09T16:02:52.389Z,-0.65
2023-02-09T16:05:22.745Z,-0.71
2023-02-09T16:07:53.448Z,-0.76
2023-02-09T16:10:24.401Z,-0.81
2023-02-09T16:12:53.570Z,-0.86
2023-02-09T16:15:24.780Z,-0.91
2023-02-09T16:17:55.223Z,-0.95
2023-02-09T16:20:26.017Z,-1.00
2023-02-09T16:22:58.099Z,-1.04
2023-02-09T16:25:28.966Z,-1.09
2023-02-09T16:27:58.651Z,-1.13
2023-02-09T16:30:34.425Z,-1.17
2023-02-09T16:33:03.726Z,-1.21
2023-02-09T16:35:34.709Z,-1.24
2023-02-09T16:38:12.404Z,-1.27
2023-02-09T16:40:41.228Z,-1.30
2023-02-09T16:43:12.682Z,-1.32
2023-02-09T16:45:53.982Z,-1.35
2023-02-09T16:48:32.059Z,-1.37
2023-02-09T16:51:04.140Z,-1.40
2023-02-09T16:53:37.840Z,-1.42
2023-02-09T16:56:11.523Z,-1.44
2023-02-09T16:59:16.245Z,-1.47
2023-02-09T17:01:46.976Z,-1.50
2023-02-09T17:04:17.347Z,-1.52
2023-02-09T17:06:49.936Z,-1.55
2023-02-09T17:09:18.676Z,-1.57
2023-02-09T17:11:47.807Z,-1.60
2023-02-09T17:14:16.873Z,-1.62
2023-02-09T17:16:49.400Z,-1.66
2023-02-09T17:19:19.297Z,-1.69
2023-02-09T17:21:48.871Z,-1.73
2023-02-09T17:24:18.482Z,-1.76
2023-02-09T17:26:48.687Z,-1.79
2023-02-09T17:29:21.071Z,-1.81
2023-02-09T17:31:53.628Z,-1.85
2023-02-09T17:34:26.748Z,-1.88
2023-02-09T17:36:57.170Z,-1.92
2023-02-09T17:39:26.777Z,-1.96
2023-02-09T17:41:55.925Z,-1.99
2023-02-09T17:44:43.636Z,-2.03
2023-02-09T17:47:19.350Z,-2.05
2023-02-09T17:49:52.234Z,-2.09
2023-02-09T17:52:24.028Z,-2.12
2023-02-09T17:54:53.719Z,-2.16
2023-02-09T17:57:23.012Z,-2.20
2023-02-09T17:59:52.308Z,-2.23
2023-02-09T18:02:22.364Z,-2.25
2023-02-09T18:04:54.919Z,-2.28
2023-02-09T18:07:24.082Z,-2.31
2023-02-09T18:09:54.020Z,-2.34
2023-02-09T18:12:27.218Z,-2.37
2023-02-09T18:14:56.599Z,-2.40
2023-02-09T18:17:26.325Z,-2.42
2023-02-09T18:19:56.315Z,-2.45
2023-02-09T18:22:27.109Z,-2.47
2023-02-09T18:24:59.525Z,-2.50
2023-02-09T18:27:29.572Z,-2.52
2023-02-09T18:30:00.697Z,-2.54
2023-02-09T18:32:29.815Z,-2.56
2023-02-09T18:34:58.713Z,-2.59
2023-02-09T18:37:30.237Z,-2.61
2023-02-09T18:39:59.514Z,-2.62
2023-02-09T18:42:32.814Z,-2.63
2023-02-09T18:45:05.850Z,-2.63
2023-02-09T18:47:36.902Z,-2.63
2023-02-09T18:50:07.532Z,-2.62
2023-02-09T18:52:45.040Z,-2.63
2023-02-09T18:55:21.180Z,-2.63
2023-02-09T18:57:51.168Z,-2.63
2023-02-09T19:00:22.583Z,-2.59
2023-02-09T19:02:57.075Z,-2.56
2023-02-09T19:05:34.814Z,-2.54
2023-02-09T19:08:09.468Z,-2.53
2023-02-09T19:10:40.911Z,-2.52
2023-02-09T19:13:11.163Z,-2.51
2023-02-09T19:15:40.867Z,-2.51
2023-02-09T19:18:12.728Z,-2.51
2023-02-09T19:20:41.868Z,-2.53
2023-02-09T19:23:11.074Z,-2.53
2023-02-09T19:25:40.131Z,-2.52
2023-02-09T19:28:09.498Z,-2.53
2023-02-09T19:30:44.777Z,-2.54
2023-02-09T19:33:29.321Z,-2.54
2023-02-09T19:36:00.636Z,-2.56
2023-02-09T19:38:29.999Z,-2.57
2023-02-09T19:41:10.746Z,-2.58
2023-02-09T19:43:40.454Z,-2.59
2023-02-09T19:46:09.899Z,-2.60
2023-02-09T19:48:40.257Z,-2.61
2023-02-09T19:51:14.161Z,-2.61
2023-02-09T19:53:44.604Z,-2.62
2023-02-09T19:56:16.783Z,-2.64
2023-02-09T19:58:46.384Z,-2.64
2023-02-09T20:01:15.842Z,-2.66
2023-02-09T20:03:44.674Z,-2.67
2023-02-09T20:06:14.602Z,-2.67
2023-02-09T20:08:44.962Z,-2.68
2023-02-09T20:11:19.248Z,-2.69
2023-02-09T20:13:58.328Z,-2.70
2023-02-09T20:16:29.696Z,-2.71
2023-02-09T20:18:58.824Z,-2.70
2023-02-09T20:21:27.763Z,-2.70
2023-02-09T20:23:58.832Z,-2.70
2023-02-09T20:26:32.524Z,-2.70
2023-02-09T20:29:05.093Z,-2.69
2023-02-09T20:31:37.540Z,-2.68
2023-02-09T20:34:11.589Z,-2.64
2023-02-09T20:36:44.122Z,-2.60
2023-02-09T20:39:15.730Z,-2.53
2023-02-09T20:42:00.696Z,-2.47
2023-02-09T20:44:48.043Z,-2.40
2023-02-09T20:47:17.440Z,-2.36
2023-02-09T20:49:47.382Z,-2.31
2023-02-09T20:52:16.537Z,-2.28
2023-02-09T20:54:46.009Z,-2.26
2023-02-09T20:57:16.184Z,-2.25
2023-02-09T20:59:44.771Z,-2.23
2023-02-09T21:02:15.367Z,-2.21
2023-02-09T21:04:44.943Z,-2.19
2023-02-09T21:07:14.295Z,-2.15
2023-02-09T21:09:46.234Z,-2.12
2023-02-09T21:12:15.471Z,-2.10
2023-02-09T21:14:47.321Z,-2.11
2023-02-09T21:17:21.161Z,-2.10
2023-02-09T21:19:50.225Z,-2.09
2023-02-09T21:22:19.438Z,-2.07
2023-02-09T21:24:49.972Z,-2.04
2023-02-09T21:27:19.934Z,-2.00
2023-02-09T21:29:49.196Z,-1.98
2023-02-09T21:32:18.021Z,-1.96
2023-02-09T21:34:47.678Z,-1.94
2023-02-09T21:37:16.543Z,-1.91
2023-02-09T21:39:47.302Z,-1.88
2023-02-09T21:42:30.495Z,-1.87
2023-02-09T21:44:59.998Z,-1.87
2023-02-09T21:47:31.582Z,-1.86
2023-02-09T21:50:00.928Z,-1.87
2023-02-09T21:52:31.736Z,-1.87
2023-02-09T21:55:00.868Z,-1.87
2023-02-09T21:57:31.213Z,-1.87
2023-02-09T22:00:05.003Z,-1.87
2023-02-09T22:02:37.300Z,-1.88
2023-02-09T22:05:08.150Z,-1.88
2023-02-09T22:07:37.088Z,-1.88
2023-02-09T22:10:08.274Z,-1.89
2023-02-09T22:12:38.202Z,-1.90
2023-02-09T22:15:11.594Z,-1.91
2023-02-09T22:17:42.024Z,-1.92
2023-02-09T22:20:13.352Z,-1.95
2023-02-09T22:22:45.534Z,-1.96
2023-02-09T22:25:15.282Z,-1.97
2023-02-09T22:27:44.493Z,-1.97
2023-02-09T22:30:13.856Z,-1.98
2023-02-09T22:32:42.915Z,-1.98
2023-02-09T22:35:13.249Z,-1.97
2023-02-09T22:37:42.067Z,-1.98
2023-02-09T22:40:12.847Z,-1.98
2023-02-09T22:42:41.786Z,-1.98
2023-02-09T22:45:12.487Z,-1.98
2023-02-09T22:47:41.054Z,-1.98
2023-02-09T22:50:12.463Z,-1.99
2023-02-09T22:52:41.854Z,-2.00
2023-02-09T22:55:10.659Z,-2.02
2023-02-09T22:57:39.628Z,-2.05
2023-02-09T23:00:14.936Z,-2.06
2023-02-09T23:02:44.120Z,-2.08
2023-02-09T23:05:14.363Z,-2.09
2023-02-09T23:07:44.659Z,-2.10
2023-02-09T23:10:13.460Z,-2.11
2023-02-09T23:12:42.093Z,-2.13
2023-02-09T23:15:11.492Z,-2.15
2023-02-09T23:17:40.492Z,-2.15
2023-02-09T23:20:10.371Z,-2.16
2023-02-09T23:22:39.438Z,-2.15
2023-02-09T23:25:09.229Z,-2.15
2023-02-09T23:27:37.959Z,-2.15
2023-02-09T23:30:11.531Z,-2.13
2023-02-09T23:32:40.372Z,-2.09
2023-02-09T23:35:09.613Z,-2.05
2023-02-09T23:37:38.569Z,-2.01
2023-02-09T23:40:09.161Z,-1.98
2023-02-09T23:42:38.119Z,-1.97
2023-02-09T23:45:09.643Z,-1.96
2023-02-09T23:47:38.735Z,-1.97
2023-02-09T23:50:08.134Z,-1.99
2023-02-09T23:52:37.074Z,-2.01
2023-02-09T23:55:08.922Z,-2.03
2023-02-09T23:57:38.572Z,-2.07
